sensor_id;sensor_type;location;lat;lon;timestamp;pressure;altitude;pressure_sealevel;temperature;humidity
14882;BME280;7533;51.278;12.588;2022-10-22T00:00:34;99655.63;;;24.16;67.73
14882;BME280;7533;51.278;12.588;2022-10-22T00:05:38;99642.25;;;24.14;67.49
14882;BME280;7533;51.278;12.588;2022-10-22T00:10:41;99638.69;;;24.14;67.56
14882;BME280;7533;51.278;12.588;2022-10-22T00:15:43;99645.34;;;24.10;67.79
14882;BME280;7533;51.278;12.588;2022-10-22T00:20:47;99644.78;;;24.06;67.56
14882;BME280;7533;51.278;12.588;2022-10-22T00:25:51;99650.31;;;24.05;67.87
14882;BME280;7533;51.278;12.588;2022-10-22T00:30:55;99638.91;;;24.01;67.75
14882;BME280;7533;51.278;12.588;2022-10-22T00:35:59;99650.88;;;23.98;67.97
14882;BME280;7533;51.278;12.588;2022-10-22T00:41:02;99662.09;;;23.94;68.24
14882;BME280;7533;51.278;12.588;2022-10-22T00:46:04;99672.31;;;23.90;68.37
14882;BME280;7533;51.278;12.588;2022-10-22T00:51:08;99687.22;;;23.85;68.30
14882;BME280;7533;51.278;12.588;2022-10-22T00:56:11;99665.31;;;23.78;68.52
14882;BME280;7533;51.278;12.588;2022-10-22T01:01:19;99671.00;;;23.75;68.66
14882;BME280;7533;51.278;12.588;2022-10-22T01:06:27;99670.56;;;23.70;68.61
14882;BME280;7533;51.278;12.588;2022-10-22T01:11:36;99663.84;;;23.64;68.93
14882;BME280;7533;51.278;12.588;2022-10-22T01:16:47;99663.09;;;23.62;68.97
14882;BME280;7533;51.278;12.588;2022-10-22T01:21:57;99667.91;;;23.59;69.37
14882;BME280;7533;51.278;12.588;2022-10-22T01:27:08;99658.50;;;23.53;69.26
14882;BME280;7533;51.278;12.588;2022-10-22T01:32:17;99655.06;;;23.51;69.35
14882;BME280;7533;51.278;12.588;2022-10-22T01:37:22;99661.75;;;23.47;69.47
14882;BME280;7533;51.278;12.588;2022-10-22T01:42:27;99662.00;;;23.44;69.72
14882;BME280;7533;51.278;12.588;2022-10-22T01:47:39;99663.25;;;23.40;69.73
14882;BME280;7533;51.278;12.588;2022-10-22T01:53:06;99661.81;;;23.36;69.82
14882;BME280;7533;51.278;12.588;2022-10-22T01:58:20;99656.69;;;23.33;70.01
14882;BME280;7533;51.278;12.588;2022-10-22T02:03:28;99657.94;;;23.29;70.07
14882;BME280;7533;51.278;12.588;2022-10-22T02:08:34;99651.81;;;23.27;70.15
14882;BME280;7533;51.278;12.588;2022-10-22T02:13:40;99653.06;;;23.22;70.44
14882;BME280;7533;51.278;12.588;2022-10-22T02:18:48;99647.09;;;23.19;70.62
14882;BME280;7533;51.278;12.588;2022-10-22T02:23:52;99643.78;;;23.15;70.79
14882;BME280;7533;51.278;12.588;2022-10-22T02:28:58;99641.38;;;23.12;70.78
14882;BME280;7533;51.278;12.588;2022-10-22T02:34:09;99631.81;;;23.08;70.92
14882;BME280;7533;51.278;12.588;2022-10-22T02:39:15;99634.78;;;23.05;71.00
14882;BME280;7533;51.278;12.588;2022-10-22T02:44:20;99629.75;;;23.01;71.16
14882;BME280;7533;51.278;12.588;2022-10-22T02:49:24;99630.03;;;22.98;71.37
14882;BME280;7533;51.278;12.588;2022-10-22T02:54:27;99623.06;;;22.95;71.28
14882;BME280;7533;51.278;12.588;2022-10-22T02:59:30;99621.50;;;22.92;71.48
14882;BME280;7533;51.278;12.588;2022-10-22T03:04:34;99630.81;;;22.88;71.54
14882;BME280;7533;51.278;12.588;2022-10-22T03:09:36;99633.78;;;22.85;71.71
14882;BME280;7533;51.278;12.588;2022-10-22T03:14:39;99633.03;;;22.83;71.66
14882;BME280;7533;51.278;12.588;2022-10-22T03:19:43;99639.69;;;22.79;71.88
14882;BME280;7533;51.278;12.588;2022-10-22T03:24:48;99648.88;;;22.77;71.93
14882;BME280;7533;51.278;12.588;2022-10-22T03:29:52;99662.66;;;22.74;72.05
14882;BME280;7533;51.278;12.588;2022-10-22T03:34:56;99661.03;;;22.71;72.12
14882;BME280;7533;51.278;12.588;2022-10-22T03:40:05;99662.28;;;22.67;72.52
14882;BME280;7533;51.278;12.588;2022-10-22T03:45:10;99657.16;;;22.64;72.52
14882;BME280;7533;51.278;12.588;2022-10-22T03:50:14;99661.84;;;22.62;72.47
14882;BME280;7533;51.278;12.588;2022-10-22T03:55:17;99673.72;;;22.59;72.61
14882;BME280;7533;51.278;12.588;2022-10-22T04:00:20;99674.84;;;22.57;72.70
14882;BME280;7533;51.278;12.588;2022-10-22T04:05:24;99677.78;;;22.54;72.84
14882;BME280;7533;51.278;12.588;2022-10-22T04:10:27;99679.78;;;22.52;73.01
14882;BME280;7533;51.278;12.588;2022-10-22T04:15:30;99680.88;;;22.49;73.05
14882;BME280;7533;51.278;12.588;2022-10-22T04:20:34;99671.22;;;22.47;73.24
14882;BME280;7533;51.278;12.588;2022-10-22T04:25:37;99675.00;;;22.44;73.21
14882;BME280;7533;51.278;12.588;2022-10-22T04:30:40;99679.69;;;22.42;73.34
14882;BME280;7533;51.278;12.588;2022-10-22T04:35:44;99680.81;;;22.39;73.29
14882;BME280;7533;51.278;12.588;2022-10-22T04:40:47;99689.00;;;22.38;73.52
14882;BME280;7533;51.278;12.588;2022-10-22T04:45:49;99695.50;;;22.35;73.47
14882;BME280;7533;51.278;12.588;2022-10-22T04:50:56;99697.44;;;22.33;73.67
14882;BME280;7533;51.278;12.588;2022-10-22T04:56:06;99702.13;;;22.31;73.74
14882;BME280;7533;51.278;12.588;2022-10-22T05:01:11;99688.78;;;22.30;73.96
14882;BME280;7533;51.278;12.588;2022-10-22T05:06:15;99683.53;;;22.28;73.92
14882;BME280;7533;51.278;12.588;2022-10-22T05:11:20;99678.22;;;22.27;73.97
14882;BME280;7533;51.278;12.588;2022-10-22T05:16:23;99686.47;;;22.25;74.21
14882;BME280;7533;51.278;12.588;2022-10-22T05:21:28;99698.38;;;22.23;74.32
14882;BME280;7533;51.278;12.588;2022-10-22T05:26:31;99706.56;;;22.21;74.27
14882;BME280;7533;51.278;12.588;2022-10-22T05:31:34;99705.69;;;22.21;74.38
14882;BME280;7533;51.278;12.588;2022-10-22T05:36:38;99704.00;;;22.20;74.33
14882;BME280;7533;51.278;12.588;2022-10-22T05:41:40;99715.63;;;22.20;74.38
14882;BME280;7533;51.278;12.588;2022-10-22T05:46:44;99716.63;;;22.19;74.36
14882;BME280;7533;51.278;12.588;2022-10-22T05:51:48;99708.66;;;22.17;74.38
14882;BME280;7533;51.278;12.588;2022-10-22T05:56:51;99713.31;;;22.15;74.53
14882;BME280;7533;51.278;12.588;2022-10-22T06:01:54;99720.66;;;22.13;74.66
14882;BME280;7533;51.278;12.588;2022-10-22T06:06:58;99732.44;;;22.12;74.86
14882;BME280;7533;51.278;12.588;2022-10-22T06:12:02;99740.50;;;22.12;74.90
14882;BME280;7533;51.278;12.588;2022-10-22T06:17:04;99750.53;;;22.10;74.88
14882;BME280;7533;51.278;12.588;2022-10-22T06:22:08;99762.28;;;22.09;74.89
14882;BME280;7533;51.278;12.588;2022-10-22T06:27:11;99781.28;;;22.08;74.94
14882;BME280;7533;51.278;12.588;2022-10-22T06:32:14;99791.31;;;22.06;75.05
14882;BME280;7533;51.278;12.588;2022-10-22T06:37:18;99802.22;;;22.04;75.27
14882;BME280;7533;51.278;12.588;2022-10-22T06:42:21;99798.78;;;22.02;75.29
14882;BME280;7533;51.278;12.588;2022-10-22T06:47:23;99812.25;;;22.02;75.40
14882;BME280;7533;51.278;12.588;2022-10-22T06:52:27;99813.25;;;22.01;75.21
14882;BME280;7533;51.278;12.588;2022-10-22T06:57:30;99817.78;;;22.01;75.35
14882;BME280;7533;51.278;12.588;2022-10-22T07:02:32;99820.56;;;21.99;75.41
14882;BME280;7533;51.278;12.588;2022-10-22T07:07:36;99825.00;;;22.00;75.32
14882;BME280;7533;51.278;12.588;2022-10-22T07:12:39;99832.22;;;22.00;75.45
14882;BME280;7533;51.278;12.588;2022-10-22T07:17:42;99838.34;;;22.02;75.10
14882;BME280;7533;51.278;12.588;2022-10-22T07:22:46;99844.59;;;22.02;75.15
14882;BME280;7533;51.278;12.588;2022-10-22T07:27:49;99853.31;;;22.06;75.33
14882;BME280;7533;51.278;12.588;2022-10-22T07:32:52;99869.72;;;22.03;75.43
14882;BME280;7533;51.278;12.588;2022-10-22T07:37:56;99866.16;;;22.02;75.00
14882;BME280;7533;51.278;12.588;2022-10-22T07:42:59;99879.56;;;21.69;73.76
14882;BME280;7533;51.278;12.588;2022-10-22T07:48:02;99884.47;;;21.39;74.34
14882;BME280;7533;51.278;12.588;2022-10-22T07:53:06;99892.16;;;21.20;74.56
14882;BME280;7533;51.278;12.588;2022-10-22T07:58:09;99893.50;;;21.02;75.25
14882;BME280;7533;51.278;12.588;2022-10-22T08:03:13;99900.22;;;21.20;75.60
14882;BME280;7533;51.278;12.588;2022-10-22T08:08:18;99891.91;;;21.36;75.16
14882;BME280;7533;51.278;12.588;2022-10-22T08:13:21;99894.88;;;21.44;75.13
14882;BME280;7533;51.278;12.588;2022-10-22T08:18:25;99905.28;;;21.49;75.22
14882;BME280;7533;51.278;12.588;2022-10-22T08:23:29;99907.63;;;21.53;75.19
14882;BME280;7533;51.278;12.588;2022-10-22T08:28:32;99913.78;;;21.55;75.26
14882;BME280;7533;51.278;12.588;2022-10-22T08:33:37;99904.72;;;21.56;75.54
14882;BME280;7533;51.278;12.588;2022-10-22T08:38:41;99914.41;;;21.59;75.42
14882;BME280;7533;51.278;12.588;2022-10-22T08:43:57;99904.38;;;21.61;75.61
14882;BME280;7533;51.278;12.588;2022-10-22T08:49:04;99915.03;;;21.62;75.58
14882;BME280;7533;51.278;12.588;2022-10-22T08:54:25;99922.13;;;21.63;75.66
14882;BME280;7533;51.278;12.588;2022-10-22T08:59:37;99919.44;;;21.63;75.58
14882;BME280;7533;51.278;12.588;2022-10-22T09:04:53;99932.78;;;21.65;75.63
14882;BME280;7533;51.278;12.588;2022-10-22T09:10:00;99943.56;;;21.65;75.70
14882;BME280;7533;51.278;12.588;2022-10-22T09:15:05;99941.72;;;21.65;75.62
14882;BME280;7533;51.278;12.588;2022-10-22T09:20:13;99939.78;;;21.68;75.50
14882;BME280;7533;51.278;12.588;2022-10-22T09:25:21;99945.06;;;21.69;75.31
14882;BME280;7533;51.278;12.588;2022-10-22T09:30:26;99949.31;;;21.72;75.32
14882;BME280;7533;51.278;12.588;2022-10-22T09:35:32;99949.25;;;21.73;75.09
14882;BME280;7533;51.278;12.588;2022-10-22T09:40:44;99964.41;;;21.74;75.09
14882;BME280;7533;51.278;12.588;2022-10-22T09:45:48;99954.38;;;21.76;75.08
14882;BME280;7533;51.278;12.588;2022-10-22T09:51:02;99954.38;;;21.76;75.03
14882;BME280;7533;51.278;12.588;2022-10-22T09:56:09;99947.91;;;21.79;75.10
14882;BME280;7533;51.278;12.588;2022-10-22T10:01:18;99958.56;;;21.80;74.96
14882;BME280;7533;51.278;12.588;2022-10-22T10:06:22;99958.44;;;21.82;75.01
14882;BME280;7533;51.278;12.588;2022-10-22T10:11:30;99954.75;;;21.83;75.01
14882;BME280;7533;51.278;12.588;2022-10-22T10:16:45;99959.94;;;21.86;75.00
14882;BME280;7533;51.278;12.588;2022-10-22T10:21:59;99967.88;;;21.87;74.78
14882;BME280;7533;51.278;12.588;2022-10-22T10:27:12;99957.75;;;21.91;74.76
14882;BME280;7533;51.278;12.588;2022-10-22T10:32:26;99960.94;;;21.96;74.73
14882;BME280;7533;51.278;12.588;2022-10-22T10:37:35;99956.53;;;21.95;74.64
14882;BME280;7533;51.278;12.588;2022-10-22T10:42:43;99951.75;;;21.99;74.99
14882;BME280;7533;51.278;12.588;2022-10-22T10:48:08;99959.16;;;22.08;74.38
14882;BME280;7533;51.278;12.588;2022-10-22T10:53:20;99961.19;;;22.17;75.34
14882;BME280;7533;51.278;12.588;2022-10-22T10:58:35;99970.38;;;22.26;76.06
14882;BME280;7533;51.278;12.588;2022-10-22T11:03:53;99964.34;;;22.22;76.28
14882;BME280;7533;51.278;12.588;2022-10-22T11:09:02;99972.22;;;22.25;75.25
14882;BME280;7533;51.278;12.588;2022-10-22T11:14:14;99966.69;;;22.27;74.76
14882;BME280;7533;51.278;12.588;2022-10-22T11:19:22;99973.91;;;22.26;74.03
14882;BME280;7533;51.278;12.588;2022-10-22T11:24:52;99985.25;;;22.07;70.43
14882;BME280;7533;51.278;12.588;2022-10-22T11:30:02;99977.38;;;22.04;70.14
14882;BME280;7533;51.278;12.588;2022-10-22T11:35:08;99971.97;;;22.17;71.00
14882;BME280;7533;51.278;12.588;2022-10-22T11:40:18;99976.75;;;22.25;70.73
14882;BME280;7533;51.278;12.588;2022-10-22T11:45:30;99980.69;;;22.32;71.34
14882;BME280;7533;51.278;12.588;2022-10-22T11:50:53;99973.94;;;22.37;71.46
14882;BME280;7533;51.278;12.588;2022-10-22T11:56:03;99977.88;;;22.44;71.43
14882;BME280;7533;51.278;12.588;2022-10-22T12:01:26;99978.28;;;22.51;71.50
14882;BME280;7533;51.278;12.588;2022-10-22T12:06:53;99974.34;;;22.55;71.59
14882;BME280;7533;51.278;12.588;2022-10-22T12:12:03;99973.25;;;22.58;71.16
14882;BME280;7533;51.278;12.588;2022-10-22T12:17:13;99983.56;;;22.64;70.69
14882;BME280;7533;51.278;12.588;2022-10-22T12:22:20;99982.09;;;22.71;70.86
14882;BME280;7533;51.278;12.588;2022-10-22T12:27:25;99978.78;;;22.79;70.97
14882;BME280;7533;51.278;12.588;2022-10-22T12:32:32;99980.50;;;22.80;70.21
14882;BME280;7533;51.278;12.588;2022-10-22T12:37:36;99987.47;;;22.82;70.27
14882;BME280;7533;51.278;12.588;2022-10-22T12:42:46;99982.38;;;22.90;70.24
14882;BME280;7533;51.278;12.588;2022-10-22T12:47:54;99976.47;;;22.96;70.12
14882;BME280;7533;51.278;12.588;2022-10-22T12:52:58;99977.94;;;23.01;70.11
14882;BME280;7533;51.278;12.588;2022-10-22T12:58:04;99977.47;;;23.07;69.80
14882;BME280;7533;51.278;12.588;2022-10-22T13:03:23;99981.25;;;23.15;69.60
14882;BME280;7533;51.278;12.588;2022-10-22T13:08:27;99972.91;;;23.18;69.25
14882;BME280;7533;51.278;12.588;2022-10-22T13:13:32;99976.19;;;23.33;69.08
14882;BME280;7533;51.278;12.588;2022-10-22T13:18:37;99975.44;;;23.42;68.88
14882;BME280;7533;51.278;12.588;2022-10-22T13:23:51;99971.97;;;23.52;68.91
14882;BME280;7533;51.278;12.588;2022-10-22T13:28:55;99972.84;;;23.63;68.15
14882;BME280;7533;51.278;12.588;2022-10-22T13:34:02;99981.53;;;23.67;68.08
14882;BME280;7533;51.278;12.588;2022-10-22T13:39:15;99984.59;;;23.62;67.91
14882;BME280;7533;51.278;12.588;2022-10-22T13:44:19;99987.69;;;23.58;67.98
14882;BME280;7533;51.278;12.588;2022-10-22T13:49:23;99979.34;;;23.49;68.16
14882;BME280;7533;51.278;12.588;2022-10-22T13:54:26;99977.75;;;23.47;68.33
14882;BME280;7533;51.278;12.588;2022-10-22T13:59:29;99983.53;;;23.42;68.70
14882;BME280;7533;51.278;12.588;2022-10-22T14:04:35;99978.28;;;23.41;69.09
14882;BME280;7533;51.278;12.588;2022-10-22T14:09:40;99983.06;;;23.37;68.63
14882;BME280;7533;51.278;12.588;2022-10-22T14:14:43;99991.28;;;23.36;68.49
14882;BME280;7533;51.278;12.588;2022-10-22T14:19:48;99993.00;;;23.37;68.77
14882;BME280;7533;51.278;12.588;2022-10-22T14:24:51;99988.59;;;23.36;68.87
14882;BME280;7533;51.278;12.588;2022-10-22T14:29:54;99997.03;;;23.42;68.91
14882;BME280;7533;51.278;12.588;2022-10-22T14:35:01;99999.47;;;23.45;68.91
14882;BME280;7533;51.278;12.588;2022-10-22T14:40:06;99998.00;;;23.53;68.69
14882;BME280;7533;51.278;12.588;2022-10-22T14:45:13;100004.75;;;23.58;68.65
14882;BME280;7533;51.278;12.588;2022-10-22T14:50:18;100010.00;;;23.60;68.83
14882;BME280;7533;51.278;12.588;2022-10-22T14:55:21;100015.22;;;23.63;68.67
14882;BME280;7533;51.278;12.588;2022-10-22T15:00:26;100021.34;;;23.65;68.87
14882;BME280;7533;51.278;12.588;2022-10-22T15:05:30;100029.16;;;23.68;68.70
14882;BME280;7533;51.278;12.588;2022-10-22T15:10:33;100029.78;;;23.71;68.60
14882;BME280;7533;51.278;12.588;2022-10-22T15:15:38;100034.19;;;23.72;68.61
14882;BME280;7533;51.278;12.588;2022-10-22T15:20:43;100040.56;;;23.83;68.18
14882;BME280;7533;51.278;12.588;2022-10-22T15:25:46;100047.69;;;23.84;68.21
14882;BME280;7533;51.278;12.588;2022-10-22T15:30:52;100044.72;;;23.87;68.23
14882;BME280;7533;51.278;12.588;2022-10-22T15:35:57;100057.00;;;23.91;68.15
14882;BME280;7533;51.278;12.588;2022-10-22T15:41:01;100064.84;;;23.94;67.94
14882;BME280;7533;51.278;12.588;2022-10-22T15:46:11;100070.97;;;23.96;67.88
14882;BME280;7533;51.278;12.588;2022-10-22T15:51:18;100068.28;;;23.96;67.86
14882;BME280;7533;51.278;12.588;2022-10-22T15:56:21;100070.13;;;23.95;67.96
14882;BME280;7533;51.278;12.588;2022-10-22T16:01:25;100074.94;;;23.92;67.91
14882;BME280;7533;51.278;12.588;2022-10-22T16:06:31;100079.50;;;23.91;68.41
14882;BME280;7533;51.278;12.588;2022-10-22T16:11:35;100092.03;;;23.92;68.26
14882;BME280;7533;51.278;12.588;2022-10-22T16:16:41;100095.56;;;23.93;67.86
14882;BME280;7533;51.278;12.588;2022-10-22T16:21:47;100092.16;;;23.91;68.02
14882;BME280;7533;51.278;12.588;2022-10-22T16:26:50;100095.94;;;23.88;67.95
14882;BME280;7533;51.278;12.588;2022-10-22T16:31:53;100095.72;;;23.91;68.09
14882;BME280;7533;51.278;12.588;2022-10-22T16:36:57;100091.84;;;24.05;67.49
14882;BME280;7533;51.278;12.588;2022-10-22T16:42:00;100104.00;;;24.11;67.54
14882;BME280;7533;51.278;12.588;2022-10-22T16:47:03;100113.59;;;24.15;67.58
14882;BME280;7533;51.278;12.588;2022-10-22T16:52:07;100117.16;;;24.15;67.25
14882;BME280;7533;51.278;12.588;2022-10-22T16:57:10;100129.81;;;24.15;67.60
14882;BME280;7533;51.278;12.588;2022-10-22T17:02:14;100137.06;;;24.14;67.55
14882;BME280;7533;51.278;12.588;2022-10-22T17:07:18;100143.19;;;24.16;67.19
14882;BME280;7533;51.278;12.588;2022-10-22T17:12:20;100148.75;;;24.15;67.55
14882;BME280;7533;51.278;12.588;2022-10-22T17:17:23;100142.19;;;24.17;67.54
14882;BME280;7533;51.278;12.588;2022-10-22T17:22:27;100152.28;;;24.15;67.40
14882;BME280;7533;51.278;12.588;2022-10-22T17:27:30;100167.81;;;24.13;67.65
14882;BME280;7533;51.278;12.588;2022-10-22T17:32:35;100181.56;;;24.10;67.97
14882;BME280;7533;51.278;12.588;2022-10-22T17:37:39;100178.00;;;24.10;67.81
14882;BME280;7533;51.278;12.588;2022-10-22T17:42:42;100181.69;;;24.09;67.77
14882;BME280;7533;51.278;12.588;2022-10-22T17:47:45;100180.69;;;24.10;67.88
14882;BME280;7533;51.278;12.588;2022-10-22T17:52:49;100179.84;;;24.09;67.68
14882;BME280;7533;51.278;12.588;2022-10-22T17:57:52;100180.84;;;24.08;68.17
14882;BME280;7533;51.278;12.588;2022-10-22T18:02:55;100190.66;;;24.09;68.07
14882;BME280;7533;51.278;12.588;2022-10-22T18:07:59;100189.88;;;24.18;67.88
14882;BME280;7533;51.278;12.588;2022-10-22T18:13:08;100191.88;;;24.16;67.55
14882;BME280;7533;51.278;12.588;2022-10-22T18:18:12;100183.88;;;24.15;67.39
14882;BME280;7533;51.278;12.588;2022-10-22T18:23:16;100188.94;;;24.19;68.15
14882;BME280;7533;51.278;12.588;2022-10-22T18:28:19;100194.44;;;24.18;68.22
14882;BME280;7533;51.278;12.588;2022-10-22T18:33:22;100189.16;;;24.16;68.17
14882;BME280;7533;51.278;12.588;2022-10-22T18:38:26;100195.44;;;24.17;68.23
14882;BME280;7533;51.278;12.588;2022-10-22T18:43:29;100203.41;;;24.18;68.11
14882;BME280;7533;51.278;12.588;2022-10-22T18:48:32;100207.72;;;24.21;68.30
14882;BME280;7533;51.278;12.588;2022-10-22T18:53:37;100210.16;;;24.24;68.10
14882;BME280;7533;51.278;12.588;2022-10-22T18:58:41;100206.59;;;24.23;68.10
14882;BME280;7533;51.278;12.588;2022-10-22T19:03:44;100212.88;;;24.24;68.34
14882;BME280;7533;51.278;12.588;2022-10-22T19:08:49;100212.88;;;24.24;68.08
14882;BME280;7533;51.278;12.588;2022-10-22T19:13:52;100220.03;;;24.25;68.26
14882;BME280;7533;51.278;12.588;2022-10-22T19:18:59;100215.47;;;24.25;68.53
14882;BME280;7533;51.278;12.588;2022-10-22T19:24:04;100222.59;;;24.26;68.25
14882;BME280;7533;51.278;12.588;2022-10-22T19:29:07;100224.56;;;24.24;68.67
14882;BME280;7533;51.278;12.588;2022-10-22T19:34:12;100229.34;;;24.21;68.76
14882;BME280;7533;51.278;12.588;2022-10-22T19:39:17;100228.84;;;24.27;68.35
14882;BME280;7533;51.278;12.588;2022-10-22T19:44:19;100232.41;;;24.27;68.36
14882;BME280;7533;51.278;12.588;2022-10-22T19:49:22;100236.34;;;24.23;68.49
14882;BME280;7533;51.278;12.588;2022-10-22T19:54:26;100257.03;;;24.24;68.56
14882;BME280;7533;51.278;12.588;2022-10-22T19:59:29;100263.16;;;24.26;68.46
14882;BME280;7533;51.278;12.588;2022-10-22T20:04:34;100272.84;;;24.29;68.39
14882;BME280;7533;51.278;12.588;2022-10-22T20:09:38;100276.53;;;24.28;68.54
14882;BME280;7533;51.278;12.588;2022-10-22T20:14:42;100277.53;;;24.27;68.54
14882;BME280;7533;51.278;12.588;2022-10-22T20:19:45;100275.97;;;24.24;68.47
14882;BME280;7533;51.278;12.588;2022-10-22T20:24:49;100282.09;;;24.26;68.64
14882;BME280;7533;51.278;12.588;2022-10-22T20:29:52;100290.84;;;24.30;68.22
14882;BME280;7533;51.278;12.588;2022-10-22T20:34:55;100287.13;;;24.31;68.84
14882;BME280;7533;51.278;12.588;2022-10-22T20:39:59;100288.84;;;24.32;68.58
14882;BME280;7533;51.278;12.588;2022-10-22T20:45:01;100295.34;;;24.29;68.65
14882;BME280;7533;51.278;12.588;2022-10-22T20:50:05;100292.66;;;24.29;68.97
14882;BME280;7533;51.278;12.588;2022-10-22T20:55:09;100295.34;;;24.29;68.90
14882;BME280;7533;51.278;12.588;2022-10-22T21:00:12;100294.50;;;24.29;68.69
14882;BME280;7533;51.278;12.588;2022-10-22T21:05:15;100307.06;;;24.30;68.89
14882;BME280;7533;51.278;12.588;2022-10-22T21:10:19;100307.28;;;24.27;69.19
14882;BME280;7533;51.278;12.588;2022-10-22T21:15:22;100311.84;;;24.26;69.08
14882;BME280;7533;51.278;12.588;2022-10-22T21:20:24;100295.25;;;24.20;69.19
14882;BME280;7533;51.278;12.588;2022-10-22T21:25:28;100307.28;;;24.16;69.22
14882;BME280;7533;51.278;12.588;2022-10-22T21:30:31;100308.78;;;24.09;69.63
14882;BME280;7533;51.278;12.588;2022-10-22T21:35:34;100312.06;;;24.12;69.30
14882;BME280;7533;51.278;12.588;2022-10-22T21:40:38;100300.53;;;24.10;69.45
14882;BME280;7533;51.278;12.588;2022-10-22T21:45:41;100299.69;;;24.10;69.33
14882;BME280;7533;51.278;12.588;2022-10-22T21:50:44;100299.41;;;24.13;69.49
14882;BME280;7533;51.278;12.588;2022-10-22T21:55:48;100289.50;;;24.13;69.08
14882;BME280;7533;51.278;12.588;2022-10-22T22:00:54;100287.88;;;24.11;69.41
14882;BME280;7533;51.278;12.588;2022-10-22T22:05:57;100298.81;;;24.09;69.61
14882;BME280;7533;51.278;12.588;2022-10-22T22:11:03;100289.72;;;24.10;69.64
14882;BME280;7533;51.278;12.588;2022-10-22T22:16:08;100305.22;;;24.08;69.68
14882;BME280;7533;51.278;12.588;2022-10-22T22:21:13;100306.19;;;24.07;69.70
14882;BME280;7533;51.278;12.588;2022-10-22T22:26:20;100317.97;;;24.06;69.88
14882;BME280;7533;51.278;12.588;2022-10-22T22:31:31;100314.28;;;24.07;69.88
14882;BME280;7533;51.278;12.588;2022-10-22T22:36:36;100313.69;;;24.04;69.91
14882;BME280;7533;51.278;12.588;2022-10-22T22:41:41;100315.53;;;24.03;70.01
14882;BME280;7533;51.278;12.588;2022-10-22T22:46:44;100313.81;;;24.02;69.73
14882;BME280;7533;51.278;12.588;2022-10-22T22:51:47;100316.75;;;23.99;69.90
14882;BME280;7533;51.278;12.588;2022-10-22T22:56:52;100323.16;;;23.98;70.14
14882;BME280;7533;51.278;12.588;2022-10-22T23:01:54;100324.13;;;23.97;70.08
14882;BME280;7533;51.278;12.588;2022-10-22T23:06:57;100326.09;;;23.95;70.39
14882;BME280;7533;51.278;12.588;2022-10-22T23:12:01;100322.78;;;23.91;70.48
14882;BME280;7533;51.278;12.588;2022-10-22T23:17:04;100326.34;;;23.92;70.37
14882;BME280;7533;51.278;12.588;2022-10-22T23:22:07;100319.94;;;23.93;70.25
14882;BME280;7533;51.278;12.588;2022-10-22T23:27:11;100314.66;;;23.91;70.41
14882;BME280;7533;51.278;12.588;2022-10-22T23:32:14;100306.56;;;23.91;70.29
14882;BME280;7533;51.278;12.588;2022-10-22T23:37:16;100308.41;;;23.91;70.35
14882;BME280;7533;51.278;12.588;2022-10-22T23:42:20;100305.81;;;23.89;70.35
14882;BME280;7533;51.278;12.588;2022-10-22T23:47:23;100307.91;;;23.86;70.46
14882;BME280;7533;51.278;12.588;2022-10-22T23:52:26;100296.13;;;23.87;70.48
14882;BME280;7533;51.278;12.588;2022-10-22T23:57:30;100298.69;;;23.88;70.60
